Mar Maria — 9HA2859 — position and weather

sailwx.info

Track history (hours):
 
Tides and Currents Weather Stations Pressure Air Temp Water Temp Dewpoint Dewpoint Depression Visibility Wind Speed Wind Dir Waves Ship Positions

Mar Maria

Last reported at 2014-Nov-21 07:33 UTC. Time now 2014-Nov-21 08:28 UTC.
Position N 37°55' W 008°52'.

Length 103 m; draft 5.6 m.

Type: Tanker. MMSI: 256435000.

Date/timePositionNaut miles runAvg speedWind from/ knotsBaromVisibWave heightAir tempDewpointWater temp
2014-Nov-21 07:33N 37°55' W 008°52'2 2.3
2014-Nov-21 06:32N 37°53' W 008°54'1111.6
2014-Nov-21 05:33N 37°42' W 008°60'1211.7
2014-Nov-21 04:33N 37°32' W 009°05'193 9.6
2014-Nov-20 08:33N 35°59' W 005°34'1010.4
2014-Nov-20 07:33N 36°04' W 005°24'6 0.7
2014-Nov-19 23:22N 36°10' W 005°23'0 0.0
2014-Nov-18 23:28N 36°10' W 005°23'0 0.0
2014-Nov-18 10:31N 36°10' W 005°24'3 2.6
2014-Nov-18 09:32N 36°08' W 005°22'0 0.0
2014-Nov-18 07:32N 36°08' W 005°22'0 0.0
2014-Nov-18 06:26N 36°08' W 005°22'0 0.0
2014-Nov-18 05:32N 36°08' W 005°22'0 0.0
2014-Nov-18 04:32N 36°08' W 005°22'0 0.0
2014-Nov-18 03:29N 36°08' W 005°22'0 0.0
2014-Nov-18 02:26N 36°08' W 005°22'0 0.0
2014-Nov-18 01:32N 36°08' W 005°22'0 0.0
2014-Nov-18 00:32N 36°08' W 005°22'0 0.1
2014-Nov-17 23:32N 36°08' W 005°22'0 0.1
2014-Nov-17 22:29N 36°08' W 005°22'0 0.0
2014-Nov-17 21:28N 36°08' W 005°22'0 0.0
2014-Nov-17 20:25N 36°08' W 005°22'0 0.0
2014-Nov-17 19:31N 36°08' W 005°22'0 0.1
2014-Nov-17 18:31N 36°08' W 005°22'0 0.0
2014-Nov-17 17:31N 36°08' W 005°22'0 0.0
2014-Nov-17 16:31N 36°08' W 005°22'0 0.0
2014-Nov-17 15:31N 36°08' W 005°22'0 0.0
2014-Nov-17 14:22N 36°08' W 005°22'0 0.0
2014-Nov-17 13:31N 36°08' W 005°22'0 0.0
2014-Nov-17 09:19N 36°08' W 005°22'0 0.0
2014-Nov-17 08:33N 36°08' W 005°22'2 2.4
2014-Nov-17 07:33N 36°06' W 005°21'3 3.1
2014-Nov-17 06:32N 36°08' W 005°18'0 0.0
2014-Nov-17 05:32N 36°08' W 005°18'0 0.0
2014-Nov-17 03:32N 36°08' W 005°18'0 0.0
2014-Nov-17 02:26N 36°08' W 005°18'0 0.0
2014-Nov-17 01:14N 36°08' W 005°18'0 0.0
2014-Nov-17 00:14N 36°08' W 005°18'0 0.0
2014-Nov-16 23:14N 36°08' W 005°18'0 0.1
2014-Nov-16 22:26N 36°08' W 005°18'3 3.4
2014-Nov-16 21:34N 36°05' W 005°17'1211.7
2014-Nov-16 20:33N 35°57' W 005°29'  
Track history (hours):
 
Tides and Currents Weather Stations Pressure Air Temp Water Temp Dewpoint Dewpoint Depression Visibility Wind Speed Wind Dir Waves Ship Positions

Mar Maria

Last reported at 2014-Nov-21 07:33 UTC. Time now 2014-Nov-21 08:28 UTC.
Position N 37°55' W 008°52'.

Length 103 m; draft 5.6 m.

Type: Tanker. MMSI: 256435000.

Date/timePositionNaut miles runAvg speedWind from/ knotsBaromVisibWave heightAir tempDewpointWater temp
2014-Nov-21 07:33N 37°55' W 008°52'2 2.3
2014-Nov-21 06:32N 37°53' W 008°54'1111.6
2014-Nov-21 05:33N 37°42' W 008°60'1211.7
2014-Nov-21 04:33N 37°32' W 009°05'193 9.6
2014-Nov-20 08:33N 35°59' W 005°34'1010.4
2014-Nov-20 07:33N 36°04' W 005°24'6 0.7
2014-Nov-19 23:22N 36°10' W 005°23'0 0.0
2014-Nov-18 23:28N 36°10' W 005°23'0 0.0
2014-Nov-18 10:31N 36°10' W 005°24'3 2.6
2014-Nov-18 09:32N 36°08' W 005°22'0 0.0
2014-Nov-18 07:32N 36°08' W 005°22'0 0.0
2014-Nov-18 06:26N 36°08' W 005°22'0 0.0
2014-Nov-18 05:32N 36°08' W 005°22'0 0.0
2014-Nov-18 04:32N 36°08' W 005°22'0 0.0
2014-Nov-18 03:29N 36°08' W 005°22'0 0.0
2014-Nov-18 02:26N 36°08' W 005°22'0 0.0
2014-Nov-18 01:32N 36°08' W 005°22'0 0.0
2014-Nov-18 00:32N 36°08' W 005°22'0 0.1
2014-Nov-17 23:32N 36°08' W 005°22'0 0.1
2014-Nov-17 22:29N 36°08' W 005°22'0 0.0
2014-Nov-17 21:28N 36°08' W 005°22'0 0.0
2014-Nov-17 20:25N 36°08' W 005°22'0 0.0
2014-Nov-17 19:31N 36°08' W 005°22'0 0.1
2014-Nov-17 18:31N 36°08' W 005°22'0 0.0
2014-Nov-17 17:31N 36°08' W 005°22'0 0.0
2014-Nov-17 16:31N 36°08' W 005°22'0 0.0
2014-Nov-17 15:31N 36°08' W 005°22'0 0.0
2014-Nov-17 14:22N 36°08' W 005°22'0 0.0
2014-Nov-17 13:31N 36°08' W 005°22'0 0.0
2014-Nov-17 09:19N 36°08' W 005°22'0 0.0
2014-Nov-17 08:33N 36°08' W 005°22'2 2.4
2014-Nov-17 07:33N 36°06' W 005°21'3 3.1
2014-Nov-17 06:32N 36°08' W 005°18'0 0.0
2014-Nov-17 05:32N 36°08' W 005°18'0 0.0
2014-Nov-17 03:32N 36°08' W 005°18'0 0.0
2014-Nov-17 02:26N 36°08' W 005°18'0 0.0
2014-Nov-17 01:14N 36°08' W 005°18'0 0.0
2014-Nov-17 00:14N 36°08' W 005°18'0 0.0
2014-Nov-16 23:14N 36°08' W 005°18'0 0.1
2014-Nov-16 22:26N 36°08' W 005°18'3 3.4
2014-Nov-16 21:34N 36°05' W 005°17'1211.7
2014-Nov-16 20:33N 35°57' W 005°29'  

Dump ship's entire track history